Terminal Aerodrome Forecast
Issued by NWS Spokane, WA

Home | Current Version | Previous Version | Text Only | Print | Product List | Glossary On
Versions: 1 2 3 4 5 6 7 8 9 10 11 12 13 14 15 16 17 18 19 20 21 22 23 24 25 26 27 28 29 30 31 32 33 34 35 36 37 38 39 40
188
FTUS46 KOTX 232119 AAB
TAFLWS
TAF AMD
KLWS 232119Z 2321/2418 12006KT P6SM VCSH BKN070
     FM232300 24017G30KT 6SM -SHRA VCTS BKN060CB OVC080
      TEMPO 2323/2401 28029G40KT -TSRA
     FM240100 27014G24KT P6SM -SHRA BKN080 OVC100
     FM240500 29005KT P6SM FEW010=

USA.gov is the U.S. government's official web portal to all federal, state and local government web resources and services.